sensor_id;sensor_type;location;lat;lon;timestamp;pressure;altitude;pressure_sealevel;temperature;humidity
68075;BME280;54864;52.002;5.468;2023-07-13T00:00:14;101203.72;;;18.86;64.60
68075;BME280;54864;52.002;5.468;2023-07-13T00:01:17;101191.97;;;18.88;64.37
68075;BME280;54864;52.002;5.468;2023-07-13T00:02:19;101194.06;;;18.96;64.51
68075;BME280;54864;52.002;5.468;2023-07-13T00:03:20;101191.50;;;18.94;64.79
68075;BME280;54864;52.002;5.468;2023-07-13T00:04:23;101194.75;;;18.87;64.77
68075;BME280;54864;52.002;5.468;2023-07-13T00:05:25;101196.38;;;19.00;64.05
68075;BME280;54864;52.002;5.468;2023-07-13T00:06:27;101189.50;;;19.09;64.62
68075;BME280;54864;52.002;5.468;2023-07-13T00:07:30;101188.09;;;18.92;65.07
68075;BME280;54864;52.002;5.468;2023-07-13T00:08:33;101194.03;;;18.72;64.93
68075;BME280;54864;52.002;5.468;2023-07-13T00:09:36;101199.53;;;18.82;64.42
68075;BME280;54864;52.002;5.468;2023-07-13T00:10:41;101203.75;;;18.73;65.06
68075;BME280;54864;52.002;5.468;2023-07-13T00:11:43;101205.13;;;18.79;64.85
68075;BME280;54864;52.002;5.468;2023-07-13T00:12:44;101198.38;;;18.86;65.69
68075;BME280;54864;52.002;5.468;2023-07-13T00:13:46;101198.56;;;18.83;65.02
68075;BME280;54864;52.002;5.468;2023-07-13T00:14:47;101194.75;;;18.87;64.83
68075;BME280;54864;52.002;5.468;2023-07-13T00:15:49;101193.66;;;18.89;64.90
68075;BME280;54864;52.002;5.468;2023-07-13T00:16:51;101198.91;;;18.91;65.00
68075;BME280;54864;52.002;5.468;2023-07-13T00:17:54;101191.63;;;18.93;65.04
68075;BME280;54864;52.002;5.468;2023-07-13T00:18:55;101199.63;;;18.93;65.67
68075;BME280;54864;52.002;5.468;2023-07-13T00:19:57;101195.59;;;18.87;65.86
68075;BME280;54864;52.002;5.468;2023-07-13T00:20:58;101189.47;;;18.85;65.94
68075;BME280;54864;52.002;5.468;2023-07-13T00:22:05;101194.63;;;18.88;65.51
68075;BME280;54864;52.002;5.468;2023-07-13T00:23:06;101187.59;;;18.87;65.67
68075;BME280;54864;52.002;5.468;2023-07-13T00:24:11;101195.78;;;18.84;65.40
68075;BME280;54864;52.002;5.468;2023-07-13T00:25:15;101201.31;;;18.70;65.00
68075;BME280;54864;52.002;5.468;2023-07-13T00:26:17;101199.03;;;18.77;65.29
68075;BME280;54864;52.002;5.468;2023-07-13T00:27:18;101195.28;;;18.79;65.30
68075;BME280;54864;52.002;5.468;2023-07-13T00:28:20;101192.50;;;18.81;64.88
68075;BME280;54864;52.002;5.468;2023-07-13T00:29:22;101199.66;;;18.80;65.84
68075;BME280;54864;52.002;5.468;2023-07-13T00:30:24;101199.94;;;18.64;65.05
68075;BME280;54864;52.002;5.468;2023-07-13T00:31:26;101199.09;;;18.51;65.16
68075;BME280;54864;52.002;5.468;2023-07-13T00:32:28;101200.22;;;18.60;65.73
68075;BME280;54864;52.002;5.468;2023-07-13T00:33:30;101196.41;;;18.64;65.56
68075;BME280;54864;52.002;5.468;2023-07-13T00:34:32;101202.72;;;18.63;65.37
68075;BME280;54864;52.002;5.468;2023-07-13T00:35:33;101197.47;;;18.61;65.13
68075;BME280;54864;52.002;5.468;2023-07-13T00:36:35;101197.16;;;18.66;65.50
68075;BME280;54864;52.002;5.468;2023-07-13T00:37:36;101196.09;;;18.56;66.29
68075;BME280;54864;52.002;5.468;2023-07-13T00:38:38;101193.63;;;18.65;66.51
68075;BME280;54864;52.002;5.468;2023-07-13T00:39:39;101192.44;;;18.57;65.94
68075;BME280;54864;52.002;5.468;2023-07-13T00:40:41;101186.25;;;18.56;66.20
68075;BME280;54864;52.002;5.468;2023-07-13T00:41:43;101194.41;;;18.42;66.89
68075;BME280;54864;52.002;5.468;2023-07-13T00:42:45;101192.25;;;18.47;67.04
68075;BME280;54864;52.002;5.468;2023-07-13T00:43:46;101199.53;;;18.45;67.01
68075;BME280;54864;52.002;5.468;2023-07-13T00:46:27;101191.75;;;18.42;66.87
68075;BME280;54864;52.002;5.468;2023-07-13T00:47:28;101197.19;;;18.41;66.35
68075;BME280;54864;52.002;5.468;2023-07-13T00:48:33;101195.78;;;18.48;66.08
68075;BME280;54864;52.002;5.468;2023-07-13T00:49:35;101198.16;;;18.40;66.66
68075;BME280;54864;52.002;5.468;2023-07-13T00:50:38;101198.94;;;18.29;66.69
68075;BME280;54864;52.002;5.468;2023-07-13T00:51:49;101203.50;;;18.40;66.53
68075;BME280;54864;52.002;5.468;2023-07-13T00:52:53;101195.69;;;18.49;66.26
68075;BME280;54864;52.002;5.468;2023-07-13T00:54:00;101196.84;;;18.45;66.90
68075;BME280;54864;52.002;5.468;2023-07-13T00:55:05;101195.91;;;18.46;66.33
68075;BME280;54864;52.002;5.468;2023-07-13T00:56:08;101205.72;;;18.46;67.07
68075;BME280;54864;52.002;5.468;2023-07-13T00:57:14;101203.47;;;18.52;67.22
68075;BME280;54864;52.002;5.468;2023-07-13T00:58:15;101206.66;;;18.57;67.21
68075;BME280;54864;52.002;5.468;2023-07-13T00:59:18;101205.81;;;18.57;67.01
68075;BME280;54864;52.002;5.468;2023-07-13T01:00:25;101207.94;;;18.52;66.68
68075;BME280;54864;52.002;5.468;2023-07-13T01:01:27;101206.13;;;18.52;65.69
68075;BME280;54864;52.002;5.468;2023-07-13T01:02:28;101203.13;;;18.57;66.08
68075;BME280;54864;52.002;5.468;2023-07-13T01:03:30;101204.63;;;18.61;66.36
68075;BME280;54864;52.002;5.468;2023-07-13T01:04:31;101205.38;;;18.50;66.64
68075;BME280;54864;52.002;5.468;2023-07-13T01:05:34;101198.03;;;18.41;66.55
68075;BME280;54864;52.002;5.468;2023-07-13T01:06:36;101197.59;;;18.47;66.48
68075;BME280;54864;52.002;5.468;2023-07-13T01:07:37;101200.69;;;18.54;66.89
68075;BME280;54864;52.002;5.468;2023-07-13T01:08:39;101210.28;;;18.56;66.58
68075;BME280;54864;52.002;5.468;2023-07-13T01:09:40;101209.66;;;18.53;65.58
68075;BME280;54864;52.002;5.468;2023-07-13T01:10:51;101202.09;;;18.47;65.91
68075;BME280;54864;52.002;5.468;2023-07-13T01:11:53;101205.63;;;18.47;66.14
68075;BME280;54864;52.002;5.468;2023-07-13T01:12:55;101209.81;;;18.38;65.78
68075;BME280;54864;52.002;5.468;2023-07-13T01:13:56;101209.38;;;18.32;66.53
68075;BME280;54864;52.002;5.468;2023-07-13T01:14:58;101209.38;;;18.32;67.51
68075;BME280;54864;52.002;5.468;2023-07-13T01:16:04;101210.78;;;18.25;66.73
68075;BME280;54864;52.002;5.468;2023-07-13T01:17:10;101213.88;;;18.31;66.67
68075;BME280;54864;52.002;5.468;2023-07-13T01:18:14;101215.69;;;18.31;66.97
68075;BME280;54864;52.002;5.468;2023-07-13T01:19:32;101210.03;;;18.35;67.06
68075;BME280;54864;52.002;5.468;2023-07-13T01:20:37;101206.50;;;18.35;66.80
68075;BME280;54864;52.002;5.468;2023-07-13T01:21:40;101213.34;;;18.26;66.85
68075;BME280;54864;52.002;5.468;2023-07-13T01:22:43;101206.63;;;18.21;67.52
68075;BME280;54864;52.002;5.468;2023-07-13T01:23:44;101206.72;;;18.19;68.19
68075;BME280;54864;52.002;5.468;2023-07-13T01:24:47;101203.84;;;18.22;67.85
68075;BME280;54864;52.002;5.468;2023-07-13T01:25:48;101204.59;;;18.24;67.91
68075;BME280;54864;52.002;5.468;2023-07-13T01:26:50;101203.00;;;18.22;67.65
68075;BME280;54864;52.002;5.468;2023-07-13T01:27:51;101210.13;;;18.09;67.60
68075;BME280;54864;52.002;5.468;2023-07-13T01:28:53;101211.75;;;18.11;67.31
68075;BME280;54864;52.002;5.468;2023-07-13T01:30:00;101208.97;;;18.13;67.39
68075;BME280;54864;52.002;5.468;2023-07-13T01:31:04;101213.22;;;18.15;67.47
68075;BME280;54864;52.002;5.468;2023-07-13T01:32:06;101207.47;;;18.09;68.44
68075;BME280;54864;52.002;5.468;2023-07-13T01:33:09;101210.25;;;18.07;68.59
68075;BME280;54864;52.002;5.468;2023-07-13T01:34:10;101217.19;;;17.97;68.43
68075;BME280;54864;52.002;5.468;2023-07-13T01:35:11;101223.16;;;18.00;68.58
68075;BME280;54864;52.002;5.468;2023-07-13T01:36:15;101220.38;;;18.02;68.35
68075;BME280;54864;52.002;5.468;2023-07-13T01:37:18;101221.03;;;18.05;68.73
68075;BME280;54864;52.002;5.468;2023-07-13T01:38:21;101221.78;;;18.08;68.92
68075;BME280;54864;52.002;5.468;2023-07-13T01:39:24;101221.66;;;18.09;68.82
68075;BME280;54864;52.002;5.468;2023-07-13T01:40:25;101216.97;;;18.00;68.36
68075;BME280;54864;52.002;5.468;2023-07-13T01:41:27;101216.22;;;17.98;68.90
68075;BME280;54864;52.002;5.468;2023-07-13T01:42:28;101222.84;;;18.05;68.45
68075;BME280;54864;52.002;5.468;2023-07-13T01:43:30;101215.28;;;17.99;69.00
68075;BME280;54864;52.002;5.468;2023-07-13T01:44:32;101224.22;;;17.98;68.75
68075;BME280;54864;52.002;5.468;2023-07-13T01:45:34;101213.13;;;17.91;68.98
68075;BME280;54864;52.002;5.468;2023-07-13T01:46:38;101218.16;;;17.96;69.21
68075;BME280;54864;52.002;5.468;2023-07-13T01:47:40;101217.41;;;17.94;69.63
68075;BME280;54864;52.002;5.468;2023-07-13T01:48:40;101221.25;;;17.90;69.49
68075;BME280;54864;52.002;5.468;2023-07-13T01:49:42;101216.66;;;17.92;69.57
68075;BME280;54864;52.002;5.468;2023-07-13T01:50:43;101208.00;;;17.88;69.29
68075;BME280;54864;52.002;5.468;2023-07-13T01:51:45;101213.34;;;17.88;69.59
68075;BME280;54864;52.002;5.468;2023-07-13T01:52:47;101214.22;;;17.89;69.37
68075;BME280;54864;52.002;5.468;2023-07-13T01:53:49;101212.28;;;17.91;69.28
68075;BME280;54864;52.002;5.468;2023-07-13T01:54:50;101216.88;;;17.89;69.38
68075;BME280;54864;52.002;5.468;2023-07-13T01:55:53;101214.75;;;17.81;70.06
68075;BME280;54864;52.002;5.468;2023-07-13T01:56:53;101210.69;;;17.76;70.10
68075;BME280;54864;52.002;5.468;2023-07-13T01:57:55;101212.94;;;17.82;69.63
68075;BME280;54864;52.002;5.468;2023-07-13T01:58:56;101208.75;;;17.78;69.39
68075;BME280;54864;52.002;5.468;2023-07-13T01:59:58;101224.66;;;17.79;69.45
68075;BME280;54864;52.002;5.468;2023-07-13T02:00:59;101216.75;;;17.78;70.34
68075;BME280;54864;52.002;5.468;2023-07-13T02:02:01;101216.56;;;17.81;70.24
68075;BME280;54864;52.002;5.468;2023-07-13T02:03:02;101228.19;;;17.80;70.05
68075;BME280;54864;52.002;5.468;2023-07-13T02:04:04;101226.38;;;17.80;69.99
68075;BME280;54864;52.002;5.468;2023-07-13T02:05:06;101227.13;;;17.82;69.86
68075;BME280;54864;52.002;5.468;2023-07-13T02:06:08;101225.94;;;17.73;70.23
68075;BME280;54864;52.002;5.468;2023-07-13T02:07:12;101224.97;;;17.74;70.17
68075;BME280;54864;52.002;5.468;2023-07-13T02:08:16;101232.66;;;17.79;70.23
68075;BME280;54864;52.002;5.468;2023-07-13T02:09:17;101229.78;;;17.69;69.62
68075;BME280;54864;52.002;5.468;2023-07-13T02:10:23;101223.97;;;17.63;70.35
68075;BME280;54864;52.002;5.468;2023-07-13T02:11:24;101223.53;;;17.56;71.04
68075;BME280;54864;52.002;5.468;2023-07-13T02:12:32;101236.28;;;17.51;70.93
68075;BME280;54864;52.002;5.468;2023-07-13T02:13:33;101229.47;;;17.47;70.91
68075;BME280;54864;52.002;5.468;2023-07-13T02:14:35;101230.63;;;17.43;71.07
68075;BME280;54864;52.002;5.468;2023-07-13T02:15:38;101233.19;;;17.44;70.88
68075;BME280;54864;52.002;5.468;2023-07-13T02:16:41;101228.91;;;17.29;71.53
68075;BME280;54864;52.002;5.468;2023-07-13T02:17:42;101231.47;;;17.31;71.88
68075;BME280;54864;52.002;5.468;2023-07-13T02:18:44;101229.97;;;17.27;71.74
68075;BME280;54864;52.002;5.468;2023-07-13T02:19:44;101234.56;;;17.37;71.92
68075;BME280;54864;52.002;5.468;2023-07-13T02:20:46;101228.28;;;17.38;72.30
68075;BME280;54864;52.002;5.468;2023-07-13T02:21:47;101219.22;;;17.41;72.27
68075;BME280;54864;52.002;5.468;2023-07-13T02:22:48;101230.41;;;17.46;71.61
68075;BME280;54864;52.002;5.468;2023-07-13T02:23:52;101226.16;;;17.43;71.99
68075;BME280;54864;52.002;5.468;2023-07-13T02:24:53;101232.44;;;17.42;71.72
68075;BME280;54864;52.002;5.468;2023-07-13T02:25:55;101222.84;;;17.40;71.66
68075;BME280;54864;52.002;5.468;2023-07-13T02:26:56;101222.94;;;17.38;72.28
68075;BME280;54864;52.002;5.468;2023-07-13T02:27:57;101227.53;;;17.36;72.26
68075;BME280;54864;52.002;5.468;2023-07-13T02:28:59;101234.13;;;17.31;72.57
68075;BME280;54864;52.002;5.468;2023-07-13T02:30:00;101228.59;;;17.34;72.42
68075;BME280;54864;52.002;5.468;2023-07-13T02:31:05;101231.78;;;17.39;72.33
68075;BME280;54864;52.002;5.468;2023-07-13T02:32:07;101225.16;;;17.32;72.30
68075;BME280;54864;52.002;5.468;2023-07-13T02:33:08;101233.81;;;17.35;72.49
68075;BME280;54864;52.002;5.468;2023-07-13T02:34:10;101230.72;;;17.29;73.38
68075;BME280;54864;52.002;5.468;2023-07-13T02:35:11;101235.28;;;17.27;73.69
68075;BME280;54864;52.002;5.468;2023-07-13T02:36:13;101239.41;;;17.18;73.82
68075;BME280;54864;52.002;5.468;2023-07-13T02:37:14;101244.44;;;17.23;73.82
68075;BME280;54864;52.002;5.468;2023-07-13T02:38:15;101233.78;;;17.23;73.98
68075;BME280;54864;52.002;5.468;2023-07-13T02:39:21;101231.88;;;17.25;73.47
68075;BME280;54864;52.002;5.468;2023-07-13T02:40:22;101235.94;;;17.30;73.70
68075;BME280;54864;52.002;5.468;2023-07-13T02:41:24;101236.59;;;17.34;73.36
68075;BME280;54864;52.002;5.468;2023-07-13T02:42:27;101238.19;;;17.36;73.59
68075;BME280;54864;52.002;5.468;2023-07-13T02:43:29;101231.47;;;17.31;73.53
68075;BME280;54864;52.002;5.468;2023-07-13T02:44:30;101229.97;;;17.27;73.80
68075;BME280;54864;52.002;5.468;2023-07-13T02:45:32;101228.44;;;17.23;73.93
68075;BME280;54864;52.002;5.468;2023-07-13T02:46:34;101229.66;;;17.31;74.14
68075;BME280;54864;52.002;5.468;2023-07-13T02:47:37;101227.53;;;17.36;73.77
68075;BME280;54864;52.002;5.468;2023-07-13T02:48:38;101228.69;;;17.32;73.79
68075;BME280;54864;52.002;5.468;2023-07-13T02:49:40;101221.44;;;17.34;73.72
68075;BME280;54864;52.002;5.468;2023-07-13T02:50:42;101227.72;;;17.33;73.82
68075;BME280;54864;52.002;5.468;2023-07-13T02:51:45;101226.34;;;17.28;74.01
68075;BME280;54864;52.002;5.468;2023-07-13T02:52:46;101221.09;;;17.26;74.42
68075;BME280;54864;52.002;5.468;2023-07-13T02:53:48;101226.97;;;17.31;74.34
68075;BME280;54864;52.002;5.468;2023-07-13T02:54:50;101225.81;;;17.35;74.58
68075;BME280;54864;52.002;5.468;2023-07-13T02:55:52;101233.06;;;17.33;74.16
68075;BME280;54864;52.002;5.468;2023-07-13T02:56:53;101227.72;;;17.33;74.16
68075;BME280;54864;52.002;5.468;2023-07-13T02:57:55;101230.59;;;17.30;74.39
68075;BME280;54864;52.002;5.468;2023-07-13T02:58:56;101219.09;;;17.30;74.41
68075;BME280;54864;52.002;5.468;2023-07-13T02:59:57;101233.56;;;17.26;74.67
68075;BME280;54864;52.002;5.468;2023-07-13T03:01:06;101226.78;;;17.34;74.70
68075;BME280;54864;52.002;5.468;2023-07-13T03:02:07;101229.34;;;17.36;74.46
68075;BME280;54864;52.002;5.468;2023-07-13T03:03:10;101227.09;;;17.30;74.76
68075;BME280;54864;52.002;5.468;2023-07-13T03:04:11;101229.66;;;17.31;74.76
68075;BME280;54864;52.002;5.468;2023-07-13T03:05:13;101241.25;;;17.30;74.82
68075;BME280;54864;52.002;5.468;2023-07-13T03:06:15;101237.44;;;17.34;74.75
68075;BME280;54864;52.002;5.468;2023-07-13T03:07:17;101242.13;;;17.31;74.71
68075;BME280;54864;52.002;5.468;2023-07-13T03:08:19;101240.09;;;17.34;74.60
68075;BME280;54864;52.002;5.468;2023-07-13T03:09:21;101238.28;;;17.35;74.64
68075;BME280;54864;52.002;5.468;2023-07-13T03:10:23;101241.25;;;17.30;74.99
68075;BME280;54864;52.002;5.468;2023-07-13T03:11:26;101240.31;;;17.31;74.73
68075;BME280;54864;52.002;5.468;2023-07-13T03:12:27;101244.78;;;17.31;75.15
68075;BME280;54864;52.002;5.468;2023-07-13T03:13:28;101244.03;;;17.29;75.54
68075;BME280;54864;52.002;5.468;2023-07-13T03:14:29;101241.38;;;17.29;75.32
68075;BME280;54864;52.002;5.468;2023-07-13T03:15:31;101245.53;;;17.33;75.20
68075;BME280;54864;52.002;5.468;2023-07-13T03:16:32;101241.91;;;17.34;75.31
68075;BME280;54864;52.002;5.468;2023-07-13T03:17:34;101251.06;;;17.30;74.98
68075;BME280;54864;52.002;5.468;2023-07-13T03:18:35;101252.69;;;17.32;74.95
68075;BME280;54864;52.002;5.468;2023-07-13T03:19:38;101243.06;;;17.30;75.10
68075;BME280;54864;52.002;5.468;2023-07-13T03:20:38;101250.28;;;17.15;75.64
68075;BME280;54864;52.002;5.468;2023-07-13T03:21:40;101242.44;;;17.26;75.34
68075;BME280;54864;52.002;5.468;2023-07-13T03:22:41;101239.66;;;17.28;75.27
68075;BME280;54864;52.002;5.468;2023-07-13T03:23:43;101247.13;;;17.35;75.13
68075;BME280;54864;52.002;5.468;2023-07-13T03:24:50;101245.31;;;17.36;74.78
68075;BME280;54864;52.002;5.468;2023-07-13T03:26:02;101247.91;;;17.10;75.26
68075;BME280;54864;52.002;5.468;2023-07-13T03:27:04;101252.94;;;17.15;75.66
68075;BME280;54864;52.002;5.468;2023-07-13T03:28:06;101246.25;;;17.22;75.76
68075;BME280;54864;52.002;5.468;2023-07-13T03:29:07;101252.63;;;17.20;76.03
68075;BME280;54864;52.002;5.468;2023-07-13T03:30:10;101253.28;;;17.23;75.86
68075;BME280;54864;52.002;5.468;2023-07-13T03:31:14;101251.53;;;17.09;75.93
68075;BME280;54864;52.002;5.468;2023-07-13T03:32:19;101262.34;;;17.21;75.57
68075;BME280;54864;52.002;5.468;2023-07-13T03:33:22;101259.22;;;17.14;75.92
68075;BME280;54864;52.002;5.468;2023-07-13T03:34:24;101258.06;;;17.18;75.67
68075;BME280;54864;52.002;5.468;2023-07-13T03:35:25;101263.84;;;17.25;75.64
68075;BME280;54864;52.002;5.468;2023-07-13T03:36:29;101257.56;;;17.26;75.64
68075;BME280;54864;52.002;5.468;2023-07-13T03:37:31;101255.94;;;17.23;75.72
68075;BME280;54864;52.002;5.468;2023-07-13T03:38:32;101257.97;;;17.20;75.85
68075;BME280;54864;52.002;5.468;2023-07-13T03:39:34;101264.06;;;17.22;75.87
68075;BME280;54864;52.002;5.468;2023-07-13T03:40:36;101262.34;;;17.21;75.77
68075;BME280;54864;52.002;5.468;2023-07-13T03:41:39;101260.63;;;17.20;76.34
68075;BME280;54864;52.002;5.468;2023-07-13T03:42:40;101257.13;;;17.19;76.39
68075;BME280;54864;52.002;5.468;2023-07-13T03:43:42;101257.97;;;17.20;76.21
68075;BME280;54864;52.002;5.468;2023-07-13T03:44:43;101260.53;;;17.21;75.83
68075;BME280;54864;52.002;5.468;2023-07-13T03:45:46;101258.72;;;17.22;75.98
68075;BME280;54864;52.002;5.468;2023-07-13T03:46:47;101262.03;;;17.25;75.75
68075;BME280;54864;52.002;5.468;2023-07-13T03:47:49;101262.78;;;17.27;75.64
68075;BME280;54864;52.002;5.468;2023-07-13T03:48:50;101262.88;;;17.26;75.74
68075;BME280;54864;52.002;5.468;2023-07-13T03:49:52;101262.69;;;17.29;75.92
68075;BME280;54864;52.002;5.468;2023-07-13T03:50:53;101267.25;;;17.27;75.85
68075;BME280;54864;52.002;5.468;2023-07-13T03:51:55;101258.06;;;17.18;76.05
68075;BME280;54864;52.002;5.468;2023-07-13T03:52:57;101270.03;;;17.25;76.05
68075;BME280;54864;52.002;5.468;2023-07-13T03:53:59;101266.50;;;17.25;76.02
68075;BME280;54864;52.002;5.468;2023-07-13T03:55:00;101269.06;;;17.26;75.96
68075;BME280;54864;52.002;5.468;2023-07-13T03:56:01;101281.34;;;17.29;75.73
68075;BME280;54864;52.002;5.468;2023-07-13T03:57:05;101273.44;;;17.27;75.79
68075;BME280;54864;52.002;5.468;2023-07-13T03:58:31;101280.38;;;17.30;75.68
68075;BME280;54864;52.002;5.468;2023-07-13T03:59:32;101276.13;;;17.27;75.93
68075;BME280;54864;52.002;5.468;2023-07-13T04:00:34;101281.13;;;17.32;75.56
68075;BME280;54864;52.002;5.468;2023-07-13T04:01:35;101283.06;;;17.30;75.80
68075;BME280;54864;52.002;5.468;2023-07-13T04:02:37;101280.28;;;17.31;76.02
68075;BME280;54864;52.002;5.468;2023-07-13T04:03:38;101289.03;;;17.33;75.93
68075;BME280;54864;52.002;5.468;2023-07-13T04:04:39;101290.00;;;17.32;76.01
68075;BME280;54864;52.002;5.468;2023-07-13T04:05:41;101291.59;;;17.35;75.74
68075;BME280;54864;52.002;5.468;2023-07-13T04:06:42;101283.41;;;17.38;75.66
68075;BME280;54864;52.002;5.468;2023-07-13T04:07:44;101282.00;;;17.32;75.99
68075;BME280;54864;52.002;5.468;2023-07-13T04:08:44;101287.88;;;17.37;75.93
68075;BME280;54864;52.002;5.468;2023-07-13T04:09:46;101288.72;;;17.38;76.08
68075;BME280;54864;52.002;5.468;2023-07-13T04:10:47;101285.75;;;17.42;75.67
68075;BME280;54864;52.002;5.468;2023-07-13T04:11:49;101288.44;;;17.42;75.99
68075;BME280;54864;52.002;5.468;2023-07-13T04:12:51;101288.44;;;17.42;76.08
68075;BME280;54864;52.002;5.468;2023-07-13T04:13:53;101284.91;;;17.42;76.12
68075;BME280;54864;52.002;5.468;2023-07-13T04:14:54;101287.47;;;17.43;76.09
68075;BME280;54864;52.002;5.468;2023-07-13T04:15:56;101289.72;;;17.50;76.03
68075;BME280;54864;52.002;5.468;2023-07-13T04:16:57;101280.88;;;17.49;76.18
68075;BME280;54864;52.002;5.468;2023-07-13T04:17:59;101284.50;;;17.48;75.54
68075;BME280;54864;52.002;5.468;2023-07-13T04:19:00;101289.47;;;17.40;76.08
68075;BME280;54864;52.002;5.468;2023-07-13T04:20:02;101294.41;;;17.46;75.74
68075;BME280;54864;52.002;5.468;2023-07-13T04:21:04;101289.63;;;17.51;75.85
68075;BME280;54864;52.002;5.468;2023-07-13T04:22:05;101294.75;;;17.54;76.14
68075;BME280;54864;52.002;5.468;2023-07-13T04:23:06;101291.06;;;17.57;76.17
68075;BME280;54864;52.002;5.468;2023-07-13T04:24:08;101296.06;;;17.61;75.79
68075;BME280;54864;52.002;5.468;2023-07-13T04:25:09;101294.38;;;17.60;75.83
68075;BME280;54864;52.002;5.468;2023-07-13T04:26:11;101290.84;;;17.60;75.73
68075;BME280;54864;52.002;5.468;2023-07-13T04:27:12;101297.69;;;17.64;76.03
68075;BME280;54864;52.002;5.468;2023-07-13T04:28:15;101284.94;;;17.55;76.21
68075;BME280;54864;52.002;5.468;2023-07-13T04:29:18;101298.63;;;17.63;76.50
68075;BME280;54864;52.002;5.468;2023-07-13T04:30:18;101299.69;;;17.60;76.32
68075;BME280;54864;52.002;5.468;2023-07-13T04:31:21;101300.25;;;17.65;75.94
68075;BME280;54864;52.002;5.468;2023-07-13T04:32:22;101301.31;;;17.63;75.81
68075;BME280;54864;52.002;5.468;2023-07-13T04:33:24;101299.31;;;17.52;76.17
68075;BME280;54864;52.002;5.468;2023-07-13T04:34:25;101306.19;;;17.56;76.24
68075;BME280;54864;52.002;5.468;2023-07-13T04:35:27;101308.88;;;17.56;76.17
68075;BME280;54864;52.002;5.468;2023-07-13T04:36:27;101306.25;;;17.55;76.13
68075;BME280;54864;52.002;5.468;2023-07-13T04:37:29;101300.94;;;17.55;76.73
68075;BME280;54864;52.002;5.468;2023-07-13T04:38:31;101303.16;;;17.48;76.37
68075;BME280;54864;52.002;5.468;2023-07-13T04:39:33;101311.25;;;17.47;77.03
68075;BME280;54864;52.002;5.468;2023-07-13T04:40:37;101309.72;;;17.57;76.62
68075;BME280;54864;52.002;5.468;2023-07-13T04:41:39;101309.31;;;17.63;76.45
68075;BME280;54864;52.002;5.468;2023-07-13T04:42:40;101298.63;;;17.63;76.83
68075;BME280;54864;52.002;5.468;2023-07-13T04:43:43;101304.38;;;17.57;76.95
68075;BME280;54864;52.002;5.468;2023-07-13T04:44:50;101310.84;;;17.67;76.71
68075;BME280;54864;52.002;5.468;2023-07-13T04:45:54;101303.31;;;17.59;76.75
68075;BME280;54864;52.002;5.468;2023-07-13T04:46:55;101305.16;;;17.44;77.66
68075;BME280;54864;52.002;5.468;2023-07-13T04:47:56;101309.25;;;17.23;78.54
68075;BME280;54864;52.002;5.468;2023-07-13T04:48:57;101306.13;;;17.43;78.39
68075;BME280;54864;52.002;5.468;2023-07-13T04:49:59;101307.53;;;17.49;78.07
68075;BME280;54864;52.002;5.468;2023-07-13T04:51:00;101305.03;;;17.60;78.11
68075;BME280;54864;52.002;5.468;2023-07-13T04:52:02;101300.19;;;17.53;77.89
68075;BME280;54864;52.002;5.468;2023-07-13T04:53:04;101294.25;;;17.62;77.64
68075;BME280;54864;52.002;5.468;2023-07-13T04:54:05;101305.56;;;17.65;77.56
68075;BME280;54864;52.002;5.468;2023-07-13T04:55:11;101297.25;;;17.57;77.61
68075;BME280;54864;52.002;5.468;2023-07-13T04:56:12;101300.94;;;17.55;78.03
68075;BME280;54864;52.002;5.468;2023-07-13T04:57:14;101305.50;;;17.67;78.01
68075;BME280;54864;52.002;5.468;2023-07-13T04:58:15;101312.13;;;17.74;77.82
68075;BME280;54864;52.002;5.468;2023-07-13T04:59:18;101303.81;;;17.79;77.64
68075;BME280;54864;52.002;5.468;2023-07-13T05:00:19;101309.56;;;17.72;77.66
68075;BME280;54864;52.002;5.468;2023-07-13T05:01:21;101305.53;;;17.80;77.39
68075;BME280;54864;52.002;5.468;2023-07-13T05:02:27;101307.88;;;17.84;77.25
68075;BME280;54864;52.002;5.468;2023-07-13T05:03:31;101302.25;;;17.89;76.89
68075;BME280;54864;52.002;5.468;2023-07-13T05:04:32;101304.38;;;17.84;76.87
68075;BME280;54864;52.002;5.468;2023-07-13T05:05:34;101302.00;;;17.79;77.35
68075;BME280;54864;52.002;5.468;2023-07-13T05:06:35;101308.63;;;17.73;77.75
68075;BME280;54864;52.002;5.468;2023-07-13T05:07:37;101309.91;;;17.81;77.44
68075;BME280;54864;52.002;5.468;2023-07-13T05:08:38;101308.75;;;17.85;77.53
68075;BME280;54864;52.002;5.468;2023-07-13T05:09:40;101309.50;;;17.87;77.24
68075;BME280;54864;52.002;5.468;2023-07-13T05:10:40;101310.78;;;17.94;77.41
68075;BME280;54864;52.002;5.468;2023-07-13T05:11:41;101313.66;;;17.91;77.27
68075;BME280;54864;52.002;5.468;2023-07-13T05:12:43;101312.91;;;17.89;77.49
68075;BME280;54864;52.002;5.468;2023-07-13T05:13:44;101313.97;;;17.86;77.21
68075;BME280;54864;52.002;5.468;2023-07-13T05:14:47;101319.84;;;17.91;76.91
68075;BME280;54864;52.002;5.468;2023-07-13T05:15:56;101313.00;;;17.87;77.70
68075;BME280;54864;52.002;5.468;2023-07-13T05:16:58;101319.84;;;17.91;77.54
68075;BME280;54864;52.002;5.468;2023-07-13T05:17:59;101316.41;;;17.77;78.13
68075;BME280;54864;52.002;5.468;2023-07-13T05:19:01;101327.97;;;17.90;77.88
68075;BME280;54864;52.002;5.468;2023-07-13T05:20:02;101328.50;;;17.95;78.01
68075;BME280;54864;52.002;5.468;2023-07-13T05:21:07;101328.28;;;17.98;76.98
68075;BME280;54864;52.002;5.468;2023-07-13T05:22:08;101324.25;;;18.05;77.19
68075;BME280;54864;52.002;5.468;2023-07-13T05:23:13;101323.91;;;17.97;77.41
68075;BME280;54864;52.002;5.468;2023-07-13T05:24:14;101322.00;;;17.99;77.04
68075;BME280;54864;52.002;5.468;2023-07-13T05:25:16;101327.75;;;18.05;77.50
68075;BME280;54864;52.002;5.468;2023-07-13T05:26:17;101325.19;;;18.04;77.95
68075;BME280;54864;52.002;5.468;2023-07-13T05:27:18;101326.91;;;17.92;77.14